Gundem Azra — 3FFS5 — position and weather

sailwx.info

Track history (hours):
 
Tides and Currents Weather Stations Pressure Air Temp Water Temp Dewpoint Dewpoint Depression Visibility Wind Speed Wind Dir Waves Ship Positions

Gundem Azra

Last reported at 2018-Apr-07 22:43 UTC. Time now 2018-Apr-22 12:38 UTC.
Position N 35°60' W 005°12'.
Warning: this ship's position is 14 days out of date.

Length 94 m; draft 6.3 m.

Type: Ship. MMSI: 352672000.

Date/timePositionNaut miles runAvg speedWind from/ knotsBaromVisibWave heightAir tempDewpointWater temp
2018-Apr-07 22:43N 35°60' W 005°12'313.0
2018-Apr-07 22:30N 35°59' W 005°15'714.0
2018-Apr-07 22:00N 35°58' W 005°24'261 9.1
2018-Apr-06 17:14N 38°20' W 009°59'310.0
2018-Apr-06 16:57N 38°23' W 010°00'4 9.9
2018-Apr-06 16:30N 38°27' W 010°01'5 9.9
2018-Apr-06 16:00N 38°32' W 010°02'5 9.9
2018-Apr-06 15:28N 38°37' W 010°04'510.0
2018-Apr-06 15:00N 38°41' W 010°06'510.0
2018-Apr-06 14:30N 38°46' W 010°06'5 9.8
2018-Apr-06 14:00N 38°51' W 010°06'5 9.6
2018-Apr-06 13:30N 38°56' W 010°07'5 9.8
2018-Apr-06 13:00N 39°01' W 010°07'5 9.9
2018-Apr-06 12:30N 39°06' W 010°08'5 9.6
2018-Apr-06 12:00N 39°11' W 010°09'  
2018-Apr-01 08:16N 50°24' W 005°53'410.8
2018-Apr-01 07:56N 50°27' W 005°49'510.5
2018-Apr-01 07:29N 50°30' W 005°43'510.0
2018-Apr-01 07:00N 50°33' W 005°38'5 9.6
2018-Apr-01 06:30N 50°36' W 005°32'5 9.2
2018-Apr-01 06:00N 50°39' W 005°27'4 8.8
2018-Apr-01 05:30N 50°42' W 005°22'4 8.6
2018-Apr-01 05:00N 50°45' W 005°16'4 8.4
2018-Apr-01 04:30N 50°48' W 005°11'4 8.6
2018-Apr-01 04:00N 50°51' W 005°06'4 8.6
2018-Apr-01 03:30N 50°53' W 005°01'4 8.7
2018-Apr-01 03:00N 50°56' W 004°56'4 8.8
2018-Apr-01 02:30N 50°59' W 004°50'5 9.1
2018-Apr-01 02:00N 51°02' W 004°45'5 9.5
2018-Apr-01 01:30N 51°05' W 004°39'510.0
2018-Apr-01 01:00N 51°08' W 004°33'5112.0
2018-Mar-31 20:44N 51°22' W 003°14'411.7
2018-Mar-31 20:22N 51°24' W 003°07'411.4
2018-Mar-31 20:00N 51°27' W 003°03'510.3
2018-Mar-31 19:30N 51°31' W 002°59'2 3.9
2018-Mar-31 19:00N 51°33' W 002°59'0 0.7
2018-Mar-31 18:29N 51°33' W 002°59'0 0.0
2018-Mar-31 17:59N 51°33' W 002°59'0 0.0
2018-Mar-31 17:30N 51°33' W 002°59'0 0.0
2018-Mar-31 16:51N 51°33' W 002°59'0 0.0
2018-Mar-31 14:50N 51°33' W 002°59'0 0.0
2018-Mar-31 14:02N 51°33' W 002°59'0 0.0
2018-Mar-31 13:50N 51°33' W 002°59'0 0.0
2018-Mar-31 13:28N 51°33' W 002°59'0 0.0
2018-Mar-31 12:58N 51°33' W 002°59'0 0.0
2018-Mar-31 12:28N 51°33' W 002°59'0 0.0
2018-Mar-31 11:58N 51°33' W 002°59'0 0.0
2018-Mar-31 11:30N 51°33' W 002°59'0 0.0
2018-Mar-31 10:54N 51°33' W 002°59'0 0.0
2018-Mar-31 10:30N 51°33' W 002°59'0 0.0
2018-Mar-31 10:00N 51°33' W 002°59'0 0.0
2018-Mar-31 09:27N 51°33' W 002°59'0 0.0
2018-Mar-31 06:49N 51°33' W 002°59'0 0.0
2018-Mar-31 06:25N 51°33' W 002°59'0 0.0
2018-Mar-31 05:55N 51°33' W 002°59'0 0.0
2018-Mar-31 05:25N 51°33' W 002°59'0 0.0
2018-Mar-31 04:49N 51°33' W 002°59'0 0.0
2018-Mar-31 04:18N 51°33' W 002°59'0 0.0
2018-Mar-31 04:00N 51°33' W 002°59'0 0.0
2018-Mar-31 03:30N 51°33' W 002°59'0 0.0
2018-Mar-31 03:00N 51°33' W 002°59'0 0.0
2018-Mar-31 02:30N 51°33' W 002°59'0 0.0
2018-Mar-31 01:56N 51°33' W 002°59'0 0.0
2018-Mar-31 01:29N 51°33' W 002°59'0 0.0
2018-Mar-31 00:59N 51°33' W 002°59'0 0.0
2018-Mar-31 00:29N 51°33' W 002°59'0 0.0
2018-Mar-30 23:59N 51°33' W 002°59'0 0.0
2018-Mar-30 23:28N 51°33' W 002°59'0 0.0
2018-Mar-30 22:58N 51°33' W 002°59'0 0.0
2018-Mar-30 22:28N 51°33' W 002°59'0 0.0
2018-Mar-30 21:58N 51°33' W 002°59'0 0.0
2018-Mar-30 21:30N 51°33' W 002°59'0 0.0
2018-Mar-30 18:02N 51°33' W 002°59'0 0.0
2018-Mar-30 17:38N 51°33' W 002°59'0 0.0
2018-Mar-30 17:20N 51°33' W 002°59'0 0.0
2018-Mar-30 15:34N 51°33' W 002°59'0 0.0
2018-Mar-30 15:10N 51°33' W 002°59'0 0.0
2018-Mar-30 14:43N 51°33' W 002°59'0 0.0
2018-Mar-30 14:30N 51°33' W 002°59'0 0.0
2018-Mar-30 14:00N 51°33' W 002°59'0 0.0
2018-Mar-30 13:24N 51°33' W 002°59'0 0.0
2018-Mar-30 13:00N 51°33' W 002°59'0 0.0
2018-Mar-30 12:30N 51°33' W 002°59'0 0.0
2018-Mar-30 11:59N 51°33' W 002°59'0 0.0
2018-Mar-30 11:29N 51°33' W 002°59'0 0.0
2018-Mar-30 10:59N 51°33' W 002°59'0 0.0
2018-Mar-30 10:17N 51°33' W 002°59'0 0.0
2018-Mar-30 09:55N 51°33' W 002°59'0 0.0
2018-Mar-30 09:28N 51°33' W 002°59'0 0.0
2018-Mar-30 08:58N 51°33' W 002°59'0 0.0
2018-Mar-30 07:39N 51°33' W 002°59'0 0.0
2018-Mar-30 07:21N 51°33' W 002°59'0 0.0
2018-Mar-30 06:48N 51°33' W 002°59'0 0.0
2018-Mar-30 06:30N 51°33' W 002°59'0 0.0
2018-Mar-30 05:57N 51°33' W 002°59'0 0.0
2018-Mar-30 05:30N 51°33' W 002°59'0 0.0
2018-Mar-30 04:56N 51°33' W 002°59'0 0.0
2018-Mar-30 04:26N 51°33' W 002°59'0 0.0
2018-Mar-30 03:56N 51°33' W 002°59'0 0.0
2018-Mar-30 03:26N 51°33' W 002°59'0 0.0
2018-Mar-30 02:58N 51°33' W 002°59'0 0.0
2018-Mar-30 02:25N 51°33' W 002°59'0 0.0
2018-Mar-30 01:55N 51°33' W 002°59'0 0.0
2018-Mar-30 01:28N 51°33' W 002°59'0 0.0
2018-Mar-30 00:58N 51°33' W 002°59'0 0.0
2018-Mar-30 00:30N 51°33' W 002°59'0 0.0
2018-Mar-30 00:00N 51°33' W 002°59'0 0.0
2018-Mar-29 23:30N 51°33' W 002°59'0 0.0
2018-Mar-29 23:00N 51°33' W 002°59'0 0.0
2018-Mar-29 22:30N 51°33' W 002°59'0 0.0
2018-Mar-29 21:59N 51°33' W 002°59'0 0.0
2018-Mar-29 21:29N 51°33' W 002°59'0 0.0
2018-Mar-29 20:53N 51°33' W 002°59'0 0.0
2018-Mar-29 20:29N 51°33' W 002°59'0 0.0
2018-Mar-29 19:58N 51°33' W 002°59'0 0.1
2018-Mar-29 19:22N 51°33' W 002°59'0 0.1
2018-Mar-29 18:46N 51°33' W 002°59'0 0.0
2018-Mar-29 18:28N 51°33' W 002°59'0 0.0
2018-Mar-29 17:58N 51°33' W 002°59'0 0.0
2018-Mar-29 17:30N 51°33' W 002°59'0 0.0
2018-Mar-29 16:57N 51°33' W 002°59'0 0.0
2018-Mar-29 16:21N 51°33' W 002°59'0 0.0
2018-Mar-29 15:57N 51°33' W 002°59'0 0.0
2018-Mar-29 15:26N 51°33' W 002°59'0 0.0
2018-Mar-29 14:56N 51°33' W 002°59'0 0.0
2018-Mar-29 14:26N 51°33' W 002°59'0 0.0
2018-Mar-29 13:59N 51°33' W 002°59'0 0.0
2018-Mar-29 13:23N 51°33' W 002°59'0 0.0
2018-Mar-29 12:58N 51°33' W 002°59'0 0.0
2018-Mar-29 12:25N 51°33' W 002°59'0 0.0
2018-Mar-29 11:31N 51°33' W 002°59'0 0.0
2018-Mar-29 11:22N 51°33' W 002°59'0 0.0
2018-Mar-29 11:01N 51°33' W 002°59'0 0.0
2018-Mar-29 10:27N 51°33' W 002°59'0 0.0
2018-Mar-29 10:00N 51°33' W 002°59'0 0.0
2018-Mar-29 09:30N 51°33' W 002°59'0 0.0
2018-Mar-29 09:00N 51°33' W 002°59'0 0.0
2018-Mar-29 08:23N 51°33' W 002°59'0 0.0
2018-Mar-29 08:00N 51°33' W 002°59'0 0.0
2018-Mar-29 07:31N 51°33' W 002°59'0 0.0
2018-Mar-29 07:01N 51°33' W 002°59'0 0.0
2018-Mar-29 06:30N 51°33' W 002°59'0 0.0
2018-Mar-29 06:00N 51°33' W 002°59'0 0.0
2018-Mar-29 05:30N 51°33' W 002°59'0 0.0
2018-Mar-29 05:00N 51°33' W 002°59'0 0.0
2018-Mar-29 04:31N 51°33' W 002°59'0 0.0
2018-Mar-29 04:00N 51°33' W 002°59'0 0.0
2018-Mar-29 03:30N 51°33' W 002°59'0 0.0
2018-Mar-29 03:01N 51°33' W 002°59'0 0.0
2018-Mar-29 02:30N 51°33' W 002°59'0 0.0
2018-Mar-29 02:00N 51°33' W 002°59'0 0.0
2018-Mar-29 01:31N 51°33' W 002°59'0 0.0
2018-Mar-29 01:00N 51°33' W 002°59'0 0.0
2018-Mar-29 00:31N 51°33' W 002°59'0 0.0
2018-Mar-29 00:01N 51°33' W 002°59'0 0.0
2018-Mar-28 23:31N 51°33' W 002°59'0 0.0
2018-Mar-28 23:01N 51°33' W 002°59'  
Track history (hours):
 
Tides and Currents Weather Stations Pressure Air Temp Water Temp Dewpoint Dewpoint Depression Visibility Wind Speed Wind Dir Waves Ship Positions

Gundem Azra

Last reported at 2018-Apr-07 22:43 UTC. Time now 2018-Apr-22 12:38 UTC.
Position N 35°60' W 005°12'.
Warning: this ship's position is 14 days out of date.

Length 94 m; draft 6.3 m.

Type: Ship. MMSI: 352672000.

Date/timePositionNaut miles runAvg speedWind from/ knotsBaromVisibWave heightAir tempDewpointWater temp
2018-Apr-07 22:43N 35°60' W 005°12'313.0
2018-Apr-07 22:30N 35°59' W 005°15'714.0
2018-Apr-07 22:00N 35°58' W 005°24'261 9.1
2018-Apr-06 17:14N 38°20' W 009°59'310.0
2018-Apr-06 16:57N 38°23' W 010°00'4 9.9
2018-Apr-06 16:30N 38°27' W 010°01'5 9.9
2018-Apr-06 16:00N 38°32' W 010°02'5 9.9
2018-Apr-06 15:28N 38°37' W 010°04'510.0
2018-Apr-06 15:00N 38°41' W 010°06'510.0
2018-Apr-06 14:30N 38°46' W 010°06'5 9.8
2018-Apr-06 14:00N 38°51' W 010°06'5 9.6
2018-Apr-06 13:30N 38°56' W 010°07'5 9.8
2018-Apr-06 13:00N 39°01' W 010°07'5 9.9
2018-Apr-06 12:30N 39°06' W 010°08'5 9.6
2018-Apr-06 12:00N 39°11' W 010°09'  
2018-Apr-01 08:16N 50°24' W 005°53'410.8
2018-Apr-01 07:56N 50°27' W 005°49'510.5
2018-Apr-01 07:29N 50°30' W 005°43'510.0
2018-Apr-01 07:00N 50°33' W 005°38'5 9.6
2018-Apr-01 06:30N 50°36' W 005°32'5 9.2
2018-Apr-01 06:00N 50°39' W 005°27'4 8.8
2018-Apr-01 05:30N 50°42' W 005°22'4 8.6
2018-Apr-01 05:00N 50°45' W 005°16'4 8.4
2018-Apr-01 04:30N 50°48' W 005°11'4 8.6
2018-Apr-01 04:00N 50°51' W 005°06'4 8.6
2018-Apr-01 03:30N 50°53' W 005°01'4 8.7
2018-Apr-01 03:00N 50°56' W 004°56'4 8.8
2018-Apr-01 02:30N 50°59' W 004°50'5 9.1
2018-Apr-01 02:00N 51°02' W 004°45'5 9.5
2018-Apr-01 01:30N 51°05' W 004°39'510.0
2018-Apr-01 01:00N 51°08' W 004°33'5112.0
2018-Mar-31 20:44N 51°22' W 003°14'411.7
2018-Mar-31 20:22N 51°24' W 003°07'411.4
2018-Mar-31 20:00N 51°27' W 003°03'510.3
2018-Mar-31 19:30N 51°31' W 002°59'2 3.9
2018-Mar-31 19:00N 51°33' W 002°59'0 0.7
2018-Mar-31 18:29N 51°33' W 002°59'0 0.0
2018-Mar-31 17:59N 51°33' W 002°59'0 0.0
2018-Mar-31 17:30N 51°33' W 002°59'0 0.0
2018-Mar-31 16:51N 51°33' W 002°59'0 0.0
2018-Mar-31 14:50N 51°33' W 002°59'0 0.0
2018-Mar-31 14:02N 51°33' W 002°59'0 0.0
2018-Mar-31 13:50N 51°33' W 002°59'0 0.0
2018-Mar-31 13:28N 51°33' W 002°59'0 0.0
2018-Mar-31 12:58N 51°33' W 002°59'0 0.0
2018-Mar-31 12:28N 51°33' W 002°59'0 0.0
2018-Mar-31 11:58N 51°33' W 002°59'0 0.0
2018-Mar-31 11:30N 51°33' W 002°59'0 0.0
2018-Mar-31 10:54N 51°33' W 002°59'0 0.0
2018-Mar-31 10:30N 51°33' W 002°59'0 0.0
2018-Mar-31 10:00N 51°33' W 002°59'0 0.0
2018-Mar-31 09:27N 51°33' W 002°59'0 0.0
2018-Mar-31 06:49N 51°33' W 002°59'0 0.0
2018-Mar-31 06:25N 51°33' W 002°59'0 0.0
2018-Mar-31 05:55N 51°33' W 002°59'0 0.0
2018-Mar-31 05:25N 51°33' W 002°59'0 0.0
2018-Mar-31 04:49N 51°33' W 002°59'0 0.0
2018-Mar-31 04:18N 51°33' W 002°59'0 0.0
2018-Mar-31 04:00N 51°33' W 002°59'0 0.0
2018-Mar-31 03:30N 51°33' W 002°59'0 0.0
2018-Mar-31 03:00N 51°33' W 002°59'0 0.0
2018-Mar-31 02:30N 51°33' W 002°59'0 0.0
2018-Mar-31 01:56N 51°33' W 002°59'0 0.0
2018-Mar-31 01:29N 51°33' W 002°59'0 0.0
2018-Mar-31 00:59N 51°33' W 002°59'0 0.0
2018-Mar-31 00:29N 51°33' W 002°59'0 0.0
2018-Mar-30 23:59N 51°33' W 002°59'0 0.0
2018-Mar-30 23:28N 51°33' W 002°59'0 0.0
2018-Mar-30 22:58N 51°33' W 002°59'0 0.0
2018-Mar-30 22:28N 51°33' W 002°59'0 0.0
2018-Mar-30 21:58N 51°33' W 002°59'0 0.0
2018-Mar-30 21:30N 51°33' W 002°59'0 0.0
2018-Mar-30 18:02N 51°33' W 002°59'0 0.0
2018-Mar-30 17:38N 51°33' W 002°59'0 0.0
2018-Mar-30 17:20N 51°33' W 002°59'0 0.0
2018-Mar-30 15:34N 51°33' W 002°59'0 0.0
2018-Mar-30 15:10N 51°33' W 002°59'0 0.0
2018-Mar-30 14:43N 51°33' W 002°59'0 0.0
2018-Mar-30 14:30N 51°33' W 002°59'0 0.0
2018-Mar-30 14:00N 51°33' W 002°59'0 0.0
2018-Mar-30 13:24N 51°33' W 002°59'0 0.0
2018-Mar-30 13:00N 51°33' W 002°59'0 0.0
2018-Mar-30 12:30N 51°33' W 002°59'0 0.0
2018-Mar-30 11:59N 51°33' W 002°59'0 0.0
2018-Mar-30 11:29N 51°33' W 002°59'0 0.0
2018-Mar-30 10:59N 51°33' W 002°59'0 0.0
2018-Mar-30 10:17N 51°33' W 002°59'0 0.0
2018-Mar-30 09:55N 51°33' W 002°59'0 0.0
2018-Mar-30 09:28N 51°33' W 002°59'0 0.0
2018-Mar-30 08:58N 51°33' W 002°59'0 0.0
2018-Mar-30 07:39N 51°33' W 002°59'0 0.0
2018-Mar-30 07:21N 51°33' W 002°59'0 0.0
2018-Mar-30 06:48N 51°33' W 002°59'0 0.0
2018-Mar-30 06:30N 51°33' W 002°59'0 0.0
2018-Mar-30 05:57N 51°33' W 002°59'0 0.0
2018-Mar-30 05:30N 51°33' W 002°59'0 0.0
2018-Mar-30 04:56N 51°33' W 002°59'0 0.0
2018-Mar-30 04:26N 51°33' W 002°59'0 0.0
2018-Mar-30 03:56N 51°33' W 002°59'0 0.0
2018-Mar-30 03:26N 51°33' W 002°59'0 0.0
2018-Mar-30 02:58N 51°33' W 002°59'0 0.0
2018-Mar-30 02:25N 51°33' W 002°59'0 0.0
2018-Mar-30 01:55N 51°33' W 002°59'0 0.0
2018-Mar-30 01:28N 51°33' W 002°59'0 0.0
2018-Mar-30 00:58N 51°33' W 002°59'0 0.0
2018-Mar-30 00:30N 51°33' W 002°59'0 0.0
2018-Mar-30 00:00N 51°33' W 002°59'0 0.0
2018-Mar-29 23:30N 51°33' W 002°59'0 0.0
2018-Mar-29 23:00N 51°33' W 002°59'0 0.0
2018-Mar-29 22:30N 51°33' W 002°59'0 0.0
2018-Mar-29 21:59N 51°33' W 002°59'0 0.0
2018-Mar-29 21:29N 51°33' W 002°59'0 0.0
2018-Mar-29 20:53N 51°33' W 002°59'0 0.0
2018-Mar-29 20:29N 51°33' W 002°59'0 0.0
2018-Mar-29 19:58N 51°33' W 002°59'0 0.1
2018-Mar-29 19:22N 51°33' W 002°59'0 0.1
2018-Mar-29 18:46N 51°33' W 002°59'0 0.0
2018-Mar-29 18:28N 51°33' W 002°59'0 0.0
2018-Mar-29 17:58N 51°33' W 002°59'0 0.0
2018-Mar-29 17:30N 51°33' W 002°59'0 0.0
2018-Mar-29 16:57N 51°33' W 002°59'0 0.0
2018-Mar-29 16:21N 51°33' W 002°59'0 0.0
2018-Mar-29 15:57N 51°33' W 002°59'0 0.0
2018-Mar-29 15:26N 51°33' W 002°59'0 0.0
2018-Mar-29 14:56N 51°33' W 002°59'0 0.0
2018-Mar-29 14:26N 51°33' W 002°59'0 0.0
2018-Mar-29 13:59N 51°33' W 002°59'0 0.0
2018-Mar-29 13:23N 51°33' W 002°59'0 0.0
2018-Mar-29 12:58N 51°33' W 002°59'0 0.0
2018-Mar-29 12:25N 51°33' W 002°59'0 0.0
2018-Mar-29 11:31N 51°33' W 002°59'0 0.0
2018-Mar-29 11:22N 51°33' W 002°59'0 0.0
2018-Mar-29 11:01N 51°33' W 002°59'0 0.0
2018-Mar-29 10:27N 51°33' W 002°59'0 0.0
2018-Mar-29 10:00N 51°33' W 002°59'0 0.0
2018-Mar-29 09:30N 51°33' W 002°59'0 0.0
2018-Mar-29 09:00N 51°33' W 002°59'0 0.0
2018-Mar-29 08:23N 51°33' W 002°59'0 0.0
2018-Mar-29 08:00N 51°33' W 002°59'0 0.0
2018-Mar-29 07:31N 51°33' W 002°59'0 0.0
2018-Mar-29 07:01N 51°33' W 002°59'0 0.0
2018-Mar-29 06:30N 51°33' W 002°59'0 0.0
2018-Mar-29 06:00N 51°33' W 002°59'0 0.0
2018-Mar-29 05:30N 51°33' W 002°59'0 0.0
2018-Mar-29 05:00N 51°33' W 002°59'0 0.0
2018-Mar-29 04:31N 51°33' W 002°59'0 0.0
2018-Mar-29 04:00N 51°33' W 002°59'0 0.0
2018-Mar-29 03:30N 51°33' W 002°59'0 0.0
2018-Mar-29 03:01N 51°33' W 002°59'0 0.0
2018-Mar-29 02:30N 51°33' W 002°59'0 0.0
2018-Mar-29 02:00N 51°33' W 002°59'0 0.0
2018-Mar-29 01:31N 51°33' W 002°59'0 0.0
2018-Mar-29 01:00N 51°33' W 002°59'0 0.0
2018-Mar-29 00:31N 51°33' W 002°59'0 0.0
2018-Mar-29 00:01N 51°33' W 002°59'0 0.0
2018-Mar-28 23:31N 51°33' W 002°59'0 0.0
2018-Mar-28 23:01N 51°33' W 002°59'  

Dump ship's entire track history